createdAt,value
2022-08-22T04:02:44.509Z,20.24
2022-08-22T04:05:59.521Z,20.24
2022-08-22T04:09:29.191Z,19.90
2022-08-22T04:13:09.031Z,19.95
2022-08-22T04:16:54.235Z,20.02
2022-08-22T04:20:41.482Z,20.29
2022-08-22T04:23:49.815Z,20.46
2022-08-22T04:27:02.229Z,20.67
2022-08-22T04:30:49.870Z,20.72
2022-08-22T04:34:22.484Z,20.78
2022-08-22T04:37:27.879Z,20.78
2022-08-22T04:40:38.919Z,20.79
2022-08-22T04:43:49.302Z,20.92
2022-08-22T04:47:00.794Z,20.89
2022-08-22T04:50:21.487Z,20.91
2022-08-22T04:54:06.051Z,20.89
2022-08-22T04:57:27.146Z,20.88
2022-08-22T05:00:49.057Z,21.04
2022-08-22T05:03:57.875Z,20.99
2022-08-22T05:07:15.940Z,21.14
2022-08-22T05:10:24.267Z,21.20
2022-08-22T05:14:05.261Z,21.39
2022-08-22T05:17:10.582Z,21.50
2022-08-22T05:20:17.515Z,21.33
2022-08-22T05:23:27.391Z,21.43
2022-08-22T05:26:37.731Z,21.52
2022-08-22T05:29:44.164Z,21.61
2022-08-22T05:32:55.518Z,21.60
2022-08-22T05:36:00.929Z,21.58
2022-08-22T05:39:12.006Z,21.82
2022-08-22T05:42:31.484Z,21.81
2022-08-22T05:45:36.277Z,21.82
2022-08-22T05:48:43.726Z,21.90
2022-08-22T05:52:10.898Z,22.03
2022-08-22T05:55:31.209Z,22.03
2022-08-22T05:58:48.291Z,22.12
2022-08-22T06:02:08.799Z,22.38
2022-08-22T06:05:12.412Z,22.45
2022-08-22T06:08:23.853Z,22.43
2022-08-22T06:11:52.140Z,22.47
2022-08-22T06:15:11.565Z,22.29
2022-08-22T06:18:21.007Z,22.36
2022-08-22T06:21:35.439Z,22.36
2022-08-22T06:24:43.235Z,22.32
2022-08-22T06:27:50.906Z,22.50
2022-08-22T06:30:56.414Z,22.66
2022-08-22T06:34:12.199Z,22.75
2022-08-22T06:37:31.563Z,22.79
2022-08-22T06:40:34.815Z,22.65
2022-08-22T06:43:43.050Z,22.69
2022-08-22T06:46:48.070Z,22.71
2022-08-22T06:49:59.091Z,22.74
2022-08-22T06:53:11.443Z,22.98
2022-08-22T06:56:21.734Z,23.29
2022-08-22T06:59:27.592Z,23.70
2022-08-22T07:02:36.700Z,24.07
2022-08-22T07:05:41.704Z,24.18
2022-08-22T07:08:45.218Z,24.38
2022-08-22T07:11:48.957Z,24.56
2022-08-22T07:14:54.354Z,24.56
2022-08-22T07:18:00.332Z,24.94
2022-08-22T07:21:04.762Z,24.74
2022-08-22T07:24:08.035Z,24.54
2022-08-22T07:27:27.543Z,24.71
2022-08-22T07:30:54.165Z,24.86
2022-08-22T07:34:13.290Z,24.78
2022-08-22T07:37:55.450Z,24.58
2022-08-22T07:41:22.885Z,24.16
2022-08-22T07:44:32.690Z,23.69
2022-08-22T07:48:08.874Z,23.74
2022-08-22T07:51:17.577Z,23.95
2022-08-22T07:54:45.451Z,23.81
2022-08-22T07:57:57.986Z,23.62
2022-08-22T08:01:01.941Z,23.59
2022-08-22T08:04:15.464Z,23.46
2022-08-22T08:07:22.373Z,22.92
2022-08-22T08:10:35.347Z,23.13
2022-08-22T08:13:42.155Z,23.31
2022-08-22T08:17:17.508Z,23.29
2022-08-22T08:20:22.934Z,23.09
2022-08-22T08:23:30.046Z,22.67
2022-08-22T08:27:07.409Z,22.50
2022-08-22T08:30:44.943Z,22.57
2022-08-22T08:33:50.280Z,22.64
2022-08-22T08:37:01.231Z,22.72
2022-08-22T08:40:16.662Z,23.10
2022-08-22T08:43:42.334Z,23.30
2022-08-22T08:46:58.333Z,23.33
2022-08-22T08:50:10.276Z,23.27
2022-08-22T08:53:29.288Z,23.45
2022-08-22T08:56:38.230Z,23.51
2022-08-22T09:00:05.194Z,23.99
2022-08-22T09:03:35.419Z,24.11
2022-08-22T09:06:52.912Z,24.31
2022-08-22T09:10:19.581Z,24.68
2022-08-22T09:13:52.310Z,25.12
2022-08-22T09:17:17.275Z,25.51
2022-08-22T09:20:39.758Z,25.68
2022-08-22T09:23:54.530Z,25.55
2022-08-22T09:27:31.398Z,25.57
2022-08-22T09:34:34.669Z,25.67
2022-08-22T09:37:57.570Z,25.61
2022-08-22T09:40:16.007Z,25.53
2022-08-22T09:41:18.634Z,25.50
2022-08-22T09:44:45.073Z,25.57
2022-08-22T09:48:09.668Z,25.54
2022-08-22T09:51:32.349Z,25.44
2022-08-22T09:54:44.615Z,25.39
2022-08-22T09:57:59.895Z,25.21
2022-08-22T10:01:15.264Z,24.81
2022-08-22T10:04:23.911Z,24.76
2022-08-22T10:07:35.278Z,24.74
2022-08-22T10:10:46.307Z,24.71
2022-08-22T10:14:11.228Z,24.81
2022-08-22T10:17:31.364Z,24.96
2022-08-22T10:20:49.792Z,24.99
2022-08-22T10:24:36.580Z,25.12
2022-08-22T10:27:55.164Z,25.20
2022-08-22T10:31:30.167Z,25.44
2022-08-22T10:34:44.553Z,25.42
2022-08-22T10:37:59.442Z,25.53
2022-08-22T10:41:09.235Z,25.65
2022-08-22T10:44:21.636Z,25.79
2022-08-22T10:47:38.607Z,26.00
2022-08-22T10:50:47.713Z,26.29
2022-08-22T10:54:32.629Z,25.64
2022-08-22T10:58:14.059Z,25.87
2022-08-22T11:01:37.617Z,26.08
2022-08-22T11:04:50.289Z,26.48
2022-08-22T11:08:11.527Z,26.74
2022-08-22T11:11:22.677Z,27.13
2022-08-22T11:14:42.408Z,27.22
2022-08-22T11:18:20.426Z,27.24
2022-08-22T11:21:36.379Z,26.64
2022-08-22T11:25:06.329Z,26.27
2022-08-22T11:28:17.641Z,25.90
2022-08-22T11:31:36.461Z,25.93
2022-08-22T11:35:31.600Z,26.24
2022-08-22T11:38:53.671Z,26.36
2022-08-22T11:42:21.980Z,26.59
2022-08-22T11:45:31.208Z,26.94
2022-08-22T11:48:58.695Z,26.75
2022-08-22T11:52:37.086Z,26.96
2022-08-22T11:55:58.646Z,27.03
2022-08-22T11:59:29.690Z,27.13
2022-08-22T12:03:05.842Z,27.29
2022-08-22T12:06:41.724Z,27.11
2022-08-22T12:10:13.735Z,27.18
2022-08-22T12:13:34.912Z,27.08
2022-08-22T12:16:59.241Z,27.29
2022-08-22T12:20:17.034Z,27.24
2022-08-22T12:23:22.967Z,27.23
2022-08-22T12:27:28.434Z,27.08
2022-08-22T12:30:35.120Z,27.15
2022-08-22T12:33:50.451Z,27.19
2022-08-22T12:37:10.280Z,26.84
2022-08-22T12:40:43.804Z,26.58
2022-08-22T12:44:05.045Z,26.49
2022-08-22T12:47:31.907Z,26.20
2022-08-22T12:50:51.743Z,25.92
2022-08-22T12:54:18.848Z,25.78
2022-08-22T12:57:34.822Z,25.92
2022-08-22T13:00:47.278Z,25.90
2022-08-22T13:04:19.335Z,25.75
2022-08-22T13:07:40.687Z,25.65
2022-08-22T13:10:58.207Z,25.62
2022-08-22T13:14:02.407Z,25.70
2022-08-22T13:17:24.648Z,25.84
2022-08-22T13:20:33.658Z,26.06
2022-08-22T13:23:45.155Z,25.97
2022-08-22T13:27:00.242Z,25.99
2022-08-22T13:30:18.718Z,26.05
2022-08-22T13:33:35.508Z,26.22
2022-08-22T13:36:51.613Z,26.36
2022-08-22T13:40:01.848Z,26.19
2022-08-22T13:43:12.399Z,26.39
2022-08-22T13:46:23.315Z,26.46
2022-08-22T13:49:49.019Z,26.62
2022-08-22T13:53:08.037Z,26.67
2022-08-22T13:56:20.055Z,26.54
2022-08-22T13:59:51.507Z,26.37
2022-08-22T14:02:59.849Z,26.29
2022-08-22T14:06:35.220Z,26.33
2022-08-22T14:09:55.777Z,26.26
2022-08-22T14:12:58.434Z,26.16
2022-08-22T14:16:04.112Z,26.07
2022-08-22T14:19:14.648Z,25.93
2022-08-22T14:22:31.916Z,25.86
2022-08-22T14:25:40.251Z,25.73
2022-08-22T14:28:43.514Z,25.72
2022-08-22T14:32:01.899Z,25.78
2022-08-22T14:35:37.818Z,25.66
2022-08-22T14:38:48.246Z,25.49
2022-08-22T14:41:58.620Z,25.75
2022-08-22T14:45:24.942Z,25.36
2022-08-22T14:48:40.678Z,25.25
2022-08-22T14:51:58.012Z,24.75
2022-08-22T14:55:11.911Z,24.46
2022-08-22T14:58:18.776Z,24.49
2022-08-22T15:01:33.601Z,24.63
2022-08-22T15:04:40.655Z,24.18
2022-08-22T15:07:54.689Z,23.97
2022-08-22T15:11:27.302Z,23.90
2022-08-22T15:14:40.296Z,24.02
2022-08-22T15:17:50.840Z,23.96
2022-08-22T15:21:24.981Z,23.92
2022-08-22T15:24:28.464Z,23.91
2022-08-22T15:27:34.327Z,23.86
2022-08-22T15:30:44.368Z,23.81
2022-08-22T15:33:48.530Z,23.78
2022-08-22T15:37:18.289Z,23.75
2022-08-22T15:40:47.779Z,23.79
2022-08-22T15:43:53.856Z,23.77
2022-08-22T15:47:01.099Z,23.68
